createdAt,value
2019-02-18T00:01:34.621Z,0.90
2019-02-18T00:04:07.484Z,0.80
2019-02-18T00:06:40.349Z,0.90
2019-02-18T00:09:13.188Z,0.80
2019-02-18T00:11:46.011Z,0.80
2019-02-18T00:14:18.845Z,0.80
2019-02-18T00:16:51.798Z,0.80
2019-02-18T00:19:24.662Z,0.80
2019-02-18T00:21:57.488Z,0.80
2019-02-18T00:24:30.302Z,0.70
2019-02-18T00:27:03.180Z,0.60
2019-02-18T00:29:35.992Z,0.50
2019-02-18T00:32:08.857Z,0.50
2019-02-18T00:34:41.783Z,0.50
2019-02-18T00:37:23.932Z,0.50
2019-02-18T00:39:49.368Z,0.50
2019-02-18T00:42:22.514Z,0.50
2019-02-18T00:44:55.326Z,0.50
2019-02-18T00:47:28.166Z,0.50
2019-02-18T00:50:01.066Z,0.50
2019-02-18T00:52:33.922Z,0.40
2019-02-18T00:55:08.783Z,0.50
2019-02-18T00:57:41.594Z,0.50
2019-02-18T01:00:15.702Z,0.60
2019-02-18T01:02:48.558Z,0.60
2019-02-18T01:05:21.374Z,0.60
2019-02-18T01:07:54.286Z,0.50
2019-02-18T01:10:28.075Z,0.40
2019-02-18T01:13:00.907Z,0.30
2019-02-18T01:15:35.465Z,0.20
2019-02-18T01:18:08.349Z,0.20
2019-02-18T01:20:41.168Z,0.10
2019-02-18T01:23:13.992Z,0.20
2019-02-18T01:25:46.774Z,0.10
2019-02-18T01:28:19.613Z,0.10
2019-02-18T01:30:52.431Z,0.00
2019-02-18T01:33:25.248Z,0.10
2019-02-18T01:35:58.050Z,0.00
2019-02-18T01:38:30.842Z,0.00
2019-02-18T01:41:03.646Z,0.00
2019-02-18T01:43:36.456Z,0.00
2019-02-18T01:46:09.252Z,-0.10
2019-02-18T01:48:42.067Z,-0.10
2019-02-18T01:51:14.892Z,-0.10
2019-02-18T01:53:47.700Z,-0.10
2019-02-18T01:56:20.522Z,-0.10
2019-02-18T01:58:53.353Z,-0.10
2019-02-18T02:01:26.180Z,-0.20
2019-02-18T02:03:59.025Z,-0.20
2019-02-18T02:06:31.843Z,-0.20
2019-02-18T02:09:10.720Z,-0.20
2019-02-18T02:11:43.529Z,-0.20
2019-02-18T02:14:16.445Z,-0.20
2019-02-18T02:16:49.455Z,-0.20
2019-02-18T02:19:22.279Z,-0.30
2019-02-18T02:21:55.040Z,-0.30
2019-02-18T02:24:27.857Z,-0.40
2019-02-18T02:27:00.685Z,-0.40
2019-02-18T02:29:33.550Z,-0.40
2019-02-18T02:32:06.340Z,-0.40
2019-02-18T02:34:39.157Z,-0.40
2019-02-18T02:37:11.991Z,-0.40
2019-02-18T02:39:45.910Z,-0.40
2019-02-18T02:42:18.715Z,-0.40
2019-02-18T02:44:51.596Z,-0.50
2019-02-18T02:47:24.414Z,-0.40
2019-02-18T02:49:57.218Z,-0.50
2019-02-18T02:52:30.018Z,-0.50
2019-02-18T02:55:03.298Z,-0.50
2019-02-18T02:57:36.128Z,-0.40
2019-02-18T03:00:09.911Z,-0.40
2019-02-18T03:02:42.743Z,-0.40
2019-02-18T03:05:15.589Z,-0.50
2019-02-18T03:07:48.394Z,-0.60
2019-02-18T03:10:21.252Z,-0.70
2019-02-18T03:12:54.079Z,-0.70
2019-02-18T03:15:26.908Z,-0.70
2019-02-18T03:17:59.739Z,-0.70
2019-02-18T03:20:32.619Z,-0.60
2019-02-18T03:23:05.435Z,-0.70
2019-02-18T03:25:38.283Z,-0.70
2019-02-18T03:28:48.660Z,-0.70
2019-02-18T03:31:25.437Z,-0.60
2019-02-18T03:34:16.984Z,-0.60
2019-02-18T03:36:49.791Z,-0.70
2019-02-18T03:39:22.607Z,-0.60
2019-02-18T03:41:55.622Z,-0.60
2019-02-18T03:44:28.574Z,-0.60
2019-02-18T03:47:01.386Z,-0.60
2019-02-18T03:49:34.227Z,-0.70
2019-02-18T03:52:07.285Z,-0.80
2019-02-18T03:54:40.074Z,-0.80
2019-02-18T03:57:12.895Z,-0.80
2019-02-18T03:59:45.972Z,-0.80
2019-02-18T04:02:18.782Z,-0.90
2019-02-18T04:04:51.591Z,-0.90
2019-02-18T04:07:24.400Z,-0.90
2019-02-18T04:09:57.279Z,-0.90
2019-02-18T04:12:30.155Z,-0.90
2019-02-18T04:15:03.554Z,-1.00
2019-02-18T04:17:36.370Z,-0.90
2019-02-18T04:20:09.219Z,-1.00
2019-02-18T04:22:42.033Z,-1.00
2019-02-18T04:25:14.846Z,-1.00
2019-02-18T04:27:47.753Z,-1.00
2019-02-18T04:30:20.553Z,-1.00
2019-02-18T04:32:53.388Z,-1.00
2019-02-18T04:35:26.184Z,-1.00
2019-02-18T04:37:59.047Z,-1.00
2019-02-18T04:40:31.879Z,-1.00
2019-02-18T04:43:04.723Z,-1.00
2019-02-18T04:45:38.655Z,-1.10
2019-02-18T04:48:11.452Z,-1.10
2019-02-18T04:50:44.268Z,-1.00
2019-02-18T04:53:17.132Z,-1.10
2019-02-18T04:55:49.990Z,-1.10
2019-02-18T04:58:22.823Z,-1.10
2019-02-18T05:00:57.472Z,-1.00
2019-02-18T05:03:30.328Z,-1.10
2019-02-18T05:06:03.163Z,-1.00
2019-02-18T05:08:35.970Z,-1.00
2019-02-18T05:11:08.803Z,-1.00
2019-02-18T05:13:41.578Z,-0.80
2019-02-18T05:16:14.403Z,-0.80
2019-02-18T05:18:47.212Z,-0.90
2019-02-18T05:21:20.113Z,-0.90
2019-02-18T05:23:52.952Z,-1.00
2019-02-18T05:26:25.739Z,-1.00
2019-02-18T05:28:58.537Z,-1.00
2019-02-18T05:31:31.330Z,-1.10
2019-02-18T05:34:04.163Z,-1.10
2019-02-18T05:36:37.021Z,-1.20
2019-02-18T05:39:18.193Z,-1.00
2019-02-18T05:41:44.563Z,-1.20
2019-02-18T05:44:17.386Z,-1.10
2019-02-18T05:46:50.207Z,-1.10
2019-02-18T05:49:23.030Z,-1.10
2019-02-18T05:51:55.897Z,-1.00
2019-02-18T05:54:28.728Z,-1.10
2019-02-18T05:57:01.578Z,-1.00
2019-02-18T05:59:34.409Z,-1.10
2019-02-18T06:02:07.256Z,-1.10
2019-02-18T06:04:40.194Z,-1.10
2019-02-18T06:07:13.064Z,-1.10
2019-02-18T06:09:45.866Z,-1.10
2019-02-18T06:12:18.699Z,-1.20
2019-02-18T06:14:51.532Z,-1.20
2019-02-18T06:17:24.361Z,-1.20
2019-02-18T06:19:57.203Z,-1.20
2019-02-18T06:22:30.081Z,-1.30
2019-02-18T06:25:02.959Z,-1.30
2019-02-18T06:27:35.777Z,-1.30
2019-02-18T06:30:09.050Z,-1.50
2019-02-18T06:32:41.881Z,-1.50
2019-02-18T06:35:14.719Z,-1.50
2019-02-18T06:37:47.644Z,-1.50
2019-02-18T06:40:20.479Z,-1.40
2019-02-18T06:42:53.326Z,-1.40
2019-02-18T06:45:40.947Z,-1.40
2019-02-18T06:48:22.131Z,-1.30
2019-02-18T06:50:54.979Z,-1.20
2019-02-18T06:53:27.831Z,-1.20
2019-02-18T06:56:00.821Z,-1.20
2019-02-18T06:58:58.841Z,-1.10
2019-02-18T07:01:39.272Z,-1.10
2019-02-18T07:04:40.517Z,-1.10
2019-02-18T07:07:35.447Z,-1.00
2019-02-18T07:10:31.051Z,-0.90
2019-02-18T07:13:04.019Z,-0.70
2019-02-18T07:15:36.843Z,0.00
2019-02-18T07:18:09.656Z,0.70
2019-02-18T07:20:42.499Z,1.30
2019-02-18T07:23:15.338Z,1.80
2019-02-18T07:25:48.185Z,2.00
2019-02-18T07:28:20.986Z,2.40
2019-02-18T07:30:53.809Z,2.80
2019-02-18T07:33:26.651Z,3.30
2019-02-18T07:35:59.484Z,3.30
2019-02-18T07:38:32.315Z,3.60
2019-02-18T07:41:05.189Z,3.80
2019-02-18T07:43:38.167Z,3.90
2019-02-18T07:46:11.010Z,4.10
2019-02-18T07:48:43.870Z,4.20
2019-02-18T07:51:16.674Z,4.40
2019-02-18T07:53:49.532Z,4.30
2019-02-18T07:56:22.469Z,4.40
2019-02-18T07:58:55.327Z,4.70
2019-02-18T08:01:28.120Z,4.70
2019-02-18T08:04:00.955Z,4.70
2019-02-18T08:06:33.859Z,4.60
2019-02-18T08:09:06.977Z,4.50
2019-02-18T08:11:39.788Z,4.50
2019-02-18T08:14:12.633Z,4.60
2019-02-18T08:16:45.459Z,4.70
2019-02-18T08:19:18.280Z,4.70
2019-02-18T08:21:51.187Z,4.90
2019-02-18T08:24:24.093Z,5.10
2019-02-18T08:26:56.938Z,5.30
2019-02-18T08:29:29.881Z,5.30
2019-02-18T08:32:02.705Z,5.20
2019-02-18T08:34:35.546Z,5.30
2019-02-18T08:37:08.406Z,5.30
2019-02-18T08:39:41.245Z,5.40
2019-02-18T08:42:14.026Z,5.50
2019-02-18T08:44:46.825Z,5.60
2019-02-18T08:47:20.744Z,5.80
2019-02-18T08:49:53.619Z,5.70
2019-02-18T08:52:26.463Z,5.70
2019-02-18T08:54:59.397Z,5.60
2019-02-18T08:57:32.237Z,5.50
2019-02-18T09:00:08.396Z,5.40
2019-02-18T09:02:41.205Z,5.40
2019-02-18T09:05:14.300Z,5.40
2019-02-18T09:07:47.206Z,5.30
2019-02-18T09:10:20.142Z,5.30
2019-02-18T09:12:52.992Z,5.20
2019-02-18T09:15:25.803Z,5.20
2019-02-18T09:17:58.755Z,5.20
2019-02-18T09:20:31.550Z,5.10
2019-02-18T09:23:23.962Z,5.10
2019-02-18T09:25:59.275Z,5.10
2019-02-18T09:28:32.119Z,5.10
2019-02-18T09:31:04.922Z,5.00
2019-02-18T09:33:37.763Z,5.00
2019-02-18T09:36:10.606Z,5.10
2019-02-18T09:38:43.441Z,5.10
2019-02-18T09:41:16.243Z,5.10
2019-02-18T09:43:50.231Z,5.20
2019-02-18T09:46:23.038Z,5.30
2019-02-18T09:48:55.850Z,5.30
2019-02-18T09:51:28.707Z,5.40
2019-02-18T09:54:01.596Z,5.50
2019-02-18T09:56:36.836Z,5.60
2019-02-18T09:59:09.120Z,5.60
2019-02-18T10:01:43.218Z,5.80
2019-02-18T10:04:16.282Z,5.90
2019-02-18T10:06:49.158Z,6.10
2019-02-18T10:09:22.019Z,6.10
2019-02-18T10:11:54.850Z,6.30
2019-02-18T10:14:27.701Z,6.40
2019-02-18T10:17:00.640Z,6.50
2019-02-18T10:19:33.506Z,6.80
2019-02-18T10:22:06.297Z,7.00
2019-02-18T10:24:50.279Z,7.20
2019-02-18T10:27:13.915Z,7.40
2019-02-18T10:29:46.770Z,7.50
2019-02-18T10:32:19.651Z,7.50
2019-02-18T10:34:52.475Z,7.50
2019-02-18T10:37:25.267Z,7.50
2019-02-18T10:39:58.126Z,7.70
2019-02-18T10:42:30.955Z,7.70
2019-02-18T10:45:05.578Z,7.70
2019-02-18T10:47:38.447Z,7.90
2019-02-18T10:50:11.505Z,8.00
2019-02-18T10:52:44.453Z,8.10
2019-02-18T10:55:17.312Z,8.20
2019-02-18T10:57:50.123Z,8.30
2019-02-18T11:00:23.267Z,8.30
2019-02-18T11:02:56.106Z,8.50
2019-02-18T11:05:28.973Z,8.60
2019-02-18T11:08:02.106Z,8.60
2019-02-18T11:10:34.967Z,8.60
2019-02-18T11:13:07.821Z,8.60
2019-02-18T11:15:40.659Z,8.60
2019-02-18T11:18:13.467Z,8.70
2019-02-18T11:20:46.313Z,8.80
2019-02-18T11:23:19.141Z,8.90
2019-02-18T11:25:52.443Z,9.00
2019-02-18T11:28:25.231Z,9.10
2019-02-18T11:30:58.068Z,9.20
2019-02-18T11:33:30.947Z,9.30
2019-02-18T11:36:04.086Z,9.40
2019-02-18T11:38:36.877Z,9.40
2019-02-18T11:41:09.712Z,9.50
2019-02-18T11:43:42.527Z,9.60
2019-02-18T11:46:15.378Z,9.60
2019-02-18T11:48:48.190Z,9.60
2019-02-18T11:51:21.175Z,9.60
2019-02-18T11:53:54.018Z,9.60
2019-02-18T11:56:26.855Z,9.60
2019-02-18T11:58:59.688Z,9.60
2019-02-18T12:01:32.517Z,9.80
2019-02-18T12:04:05.335Z,9.90
2019-02-18T12:06:38.276Z,10.00
2019-02-18T12:09:11.080Z,10.10
2019-02-18T12:11:43.958Z,10.20
2019-02-18T12:14:16.784Z,10.40
2019-02-18T12:16:49.599Z,10.50
2019-02-18T12:19:22.395Z,10.40
2019-02-18T12:21:55.239Z,10.40
2019-02-18T12:24:28.085Z,10.40
2019-02-18T12:27:01.029Z,10.40
2019-02-18T12:29:33.838Z,10.70
2019-02-18T12:32:06.706Z,10.80
2019-02-18T12:34:39.835Z,10.80
2019-02-18T12:37:12.723Z,10.80
2019-02-18T12:39:45.543Z,10.80
2019-02-18T12:42:18.391Z,10.90
2019-02-18T12:44:51.231Z,10.90
2019-02-18T12:47:24.050Z,10.90
2019-02-18T12:49:56.831Z,11.00
2019-02-18T12:52:29.695Z,11.00
2019-02-18T12:55:02.641Z,11.00
2019-02-18T12:57:35.920Z,11.10
2019-02-18T13:00:10.680Z,11.20
2019-02-18T13:02:45.147Z,11.20
2019-02-18T13:05:18.404Z,11.30
2019-02-18T13:07:51.370Z,11.20
2019-02-18T13:10:34.504Z,11.30
2019-02-18T13:12:59.250Z,11.40
2019-02-18T13:15:32.077Z,11.40
2019-02-18T13:20:37.758Z,11.60
2019-02-18T13:23:10.880Z,11.60
2019-02-18T13:25:47.523Z,11.70
2019-02-18T13:28:19.631Z,11.80
2019-02-18T13:30:52.536Z,11.80
2019-02-18T13:33:25.352Z,11.90
2019-02-18T13:35:58.587Z,11.80
2019-02-18T13:38:31.460Z,11.90
2019-02-18T13:41:04.292Z,11.90
2019-02-18T13:43:37.115Z,11.90
2019-02-18T13:46:09.959Z,11.90
2019-02-18T13:48:43.009Z,12.00
2019-02-18T13:51:23.857Z,12.00
2019-02-18T13:53:50.625Z,12.00
2019-02-18T13:56:23.456Z,12.00
2019-02-18T13:58:56.602Z,12.00
2019-02-18T14:01:29.748Z,12.00
2019-02-18T14:04:02.568Z,12.10
2019-02-18T14:06:35.906Z,12.20
2019-02-18T14:09:08.938Z,12.20
2019-02-18T14:11:41.808Z,12.30
2019-02-18T14:14:14.638Z,12.30
2019-02-18T14:16:47.535Z,12.30
2019-02-18T14:19:20.358Z,12.20
2019-02-18T14:21:53.385Z,12.30
2019-02-18T14:24:26.224Z,12.30
2019-02-18T14:26:59.182Z,12.40
2019-02-18T14:29:32.105Z,12.50
2019-02-18T14:32:05.043Z,12.50
2019-02-18T14:34:37.851Z,12.60
2019-02-18T14:37:10.828Z,12.60
2019-02-18T14:39:43.661Z,12.70
2019-02-18T14:42:24.162Z,12.70
2019-02-18T14:44:51.947Z,12.70
2019-02-18T14:47:24.950Z,12.60
2019-02-18T14:49:57.863Z,12.60
2019-02-18T14:52:30.756Z,12.60
2019-02-18T14:55:03.908Z,12.70
2019-02-18T14:57:36.836Z,12.70
2019-02-18T15:00:20.777Z,12.80
2019-02-18T15:02:55.532Z,12.80
2019-02-18T15:05:28.640Z,12.80
2019-02-18T15:08:01.533Z,12.80
2019-02-18T15:10:34.497Z,12.70
2019-02-18T15:13:07.340Z,12.80
2019-02-18T15:15:40.166Z,12.80
2019-02-18T15:18:13.036Z,12.70
2019-02-18T15:20:45.922Z,12.60
2019-02-18T15:23:18.839Z,12.50
2019-02-18T15:25:51.660Z,12.50
2019-02-18T15:28:24.892Z,12.50
2019-02-18T15:30:57.838Z,12.40
2019-02-18T15:33:30.675Z,12.40
2019-02-18T15:36:03.477Z,12.30
2019-02-18T15:38:36.325Z,12.10
2019-02-18T15:41:09.175Z,12.10
2019-02-18T15:43:41.997Z,12.00
2019-02-18T15:46:14.875Z,11.90
2019-02-18T15:48:47.734Z,11.90
2019-02-18T15:51:20.603Z,11.70
2019-02-18T15:53:53.415Z,11.70
2019-02-18T15:56:26.244Z,11.80
2019-02-18T15:58:59.236Z,11.70
2019-02-18T16:01:32.081Z,11.80
2019-02-18T16:04:05.118Z,11.90
2019-02-18T16:06:38.076Z,11.90
2019-02-18T16:09:10.973Z,11.80
2019-02-18T16:11:43.872Z,11.70
2019-02-18T16:14:16.754Z,11.60
2019-02-18T16:16:49.668Z,11.50
2019-02-18T16:19:22.505Z,11.30
2019-02-18T16:21:55.446Z,11.20
2019-02-18T16:24:28.281Z,10.90
2019-02-18T16:27:01.445Z,10.70
2019-02-18T16:29:34.310Z,10.50
2019-02-18T16:32:07.171Z,10.30
2019-02-18T16:34:40.119Z,10.20
2019-02-18T16:37:13.403Z,10.00
2019-02-18T16:39:46.285Z,9.90
2019-02-18T16:42:19.132Z,9.70
2019-02-18T16:44:52.114Z,9.60
2019-02-18T16:47:25.044Z,9.40
2019-02-18T16:49:57.913Z,9.30
2019-02-18T16:52:30.864Z,9.20
2019-02-18T16:55:04.353Z,9.20
2019-02-18T16:57:38.237Z,9.10
2019-02-18T17:00:34.579Z,9.10
2019-02-18T17:03:07.747Z,9.00
2019-02-18T17:05:40.576Z,8.90
2019-02-18T17:08:13.890Z,8.90
2019-02-18T17:10:46.740Z,9.00
2019-02-18T17:13:19.614Z,9.10
2019-02-18T17:15:52.439Z,9.00
2019-02-18T17:18:25.325Z,8.90
2019-02-18T17:20:58.536Z,8.70
2019-02-18T17:23:31.430Z,8.50
2019-02-18T17:26:04.245Z,8.30
2019-02-18T17:28:37.121Z,8.00
2019-02-18T17:31:09.963Z,7.90
2019-02-18T17:33:42.807Z,7.70
2019-02-18T17:36:15.686Z,7.60
2019-02-18T17:38:48.559Z,7.50
2019-02-18T17:41:21.444Z,7.50
2019-02-18T17:43:54.822Z,7.50
2019-02-18T17:46:27.653Z,7.50
2019-02-18T17:49:00.534Z,7.40
2019-02-18T17:51:33.566Z,7.20
2019-02-18T17:54:06.414Z,7.10
2019-02-18T17:56:39.342Z,6.90
2019-02-18T17:59:12.226Z,6.90
2019-02-18T18:01:45.119Z,6.90
2019-02-18T18:04:17.963Z,6.90
2019-02-18T18:06:50.818Z,6.80
2019-02-18T18:09:23.651Z,6.70
2019-02-18T18:11:56.520Z,6.70
2019-02-18T18:14:29.436Z,6.70
2019-02-18T18:17:02.321Z,6.60
2019-02-18T18:19:35.479Z,6.50
2019-02-18T18:22:08.399Z,6.50
2019-02-18T18:24:41.283Z,6.30
2019-02-18T18:27:14.144Z,6.30
2019-02-18T18:29:47.075Z,6.30
2019-02-18T18:32:19.990Z,6.20
2019-02-18T18:34:52.819Z,6.20
2019-02-18T18:37:25.638Z,6.00
2019-02-18T18:39:58.583Z,6.00
2019-02-18T18:42:31.832Z,5.90
2019-02-18T18:45:06.312Z,6.00
2019-02-18T18:47:39.219Z,5.90
2019-02-18T18:50:14.903Z,5.90
2019-02-18T18:52:48.168Z,5.80
2019-02-18T18:55:21.035Z,5.70
2019-02-18T18:57:54.029Z,5.70
2019-02-18T19:00:27.185Z,5.70
2019-02-18T19:03:00.073Z,5.60
2019-02-18T19:05:32.937Z,5.50
2019-02-18T19:08:05.932Z,5.50
2019-02-18T19:10:39.061Z,5.50
2019-02-18T19:13:12.098Z,5.60
2019-02-18T19:15:49.604Z,5.60
2019-02-18T19:18:20.157Z,5.60
2019-02-18T19:20:53.034Z,5.50
2019-02-18T19:23:26.006Z,5.50
2019-02-18T19:25:59.446Z,5.40
2019-02-18T19:28:32.467Z,5.40
2019-02-18T19:31:05.309Z,5.30
2019-02-18T19:33:38.192Z,5.10
2019-02-18T19:36:11.191Z,5.10
2019-02-18T19:38:44.055Z,5.30
2019-02-18T19:41:17.026Z,5.40
2019-02-18T19:43:50.494Z,5.60
2019-02-18T19:46:23.609Z,5.70
2019-02-18T19:48:57.726Z,5.80
2019-02-18T19:51:30.665Z,5.70
2019-02-18T19:54:03.576Z,5.50
2019-02-18T19:56:36.606Z,5.50
2019-02-18T19:59:11.488Z,5.40
2019-02-18T20:01:46.571Z,5.40
2019-02-18T20:04:19.612Z,5.30
2019-02-18T20:06:52.481Z,5.30
2019-02-18T20:09:25.404Z,5.20
2019-02-18T20:11:58.386Z,5.20
2019-02-18T20:14:31.307Z,5.20
2019-02-18T20:17:04.177Z,5.00
2019-02-18T20:19:37.169Z,5.00
2019-02-18T20:22:10.278Z,5.00
2019-02-18T20:24:43.147Z,4.90
2019-02-18T20:27:16.093Z,4.90
2019-02-18T20:29:49.053Z,4.90
2019-02-18T20:32:22.180Z,4.80
2019-02-18T20:34:55.154Z,4.70
2019-02-18T20:37:28.044Z,4.70
2019-02-18T20:40:00.873Z,4.60
2019-02-18T20:42:33.828Z,4.60
2019-02-18T20:45:08.089Z,4.60
2019-02-18T20:47:41.097Z,4.60
2019-02-18T20:50:14.186Z,4.40
2019-02-18T20:52:48.335Z,4.30
2019-02-18T20:55:21.727Z,4.10
2019-02-18T20:57:54.604Z,4.00
2019-02-18T21:00:28.618Z,3.90
2019-02-18T21:03:01.712Z,3.90
2019-02-18T21:05:34.718Z,3.80
2019-02-18T21:08:07.674Z,3.80
2019-02-18T21:10:40.625Z,3.80
2019-02-18T21:13:13.572Z,3.80
2019-02-18T21:15:46.480Z,3.80
2019-02-18T21:18:21.721Z,3.90
2019-02-18T21:20:54.695Z,3.90
2019-02-18T21:23:27.560Z,3.80
2019-02-18T21:26:00.670Z,3.90
2019-02-18T21:28:33.825Z,3.90
2019-02-18T21:31:06.802Z,3.90
2019-02-18T21:33:39.650Z,3.90
2019-02-18T21:36:12.516Z,3.90
2019-02-18T21:38:45.410Z,3.90
2019-02-18T21:41:18.289Z,3.90
2019-02-18T21:43:51.196Z,3.90
2019-02-18T21:46:24.038Z,4.00
2019-02-18T21:48:56.870Z,4.10
2019-02-18T21:51:29.707Z,4.00
2019-02-18T21:54:02.662Z,3.90
2019-02-18T21:56:35.588Z,3.80
2019-02-18T21:59:09.533Z,3.70
2019-02-18T22:01:42.420Z,3.60
2019-02-18T22:04:15.272Z,3.70
2019-02-18T22:06:48.112Z,3.70
2019-02-18T22:09:20.954Z,3.70
2019-02-18T22:11:53.795Z,3.70
2019-02-18T22:14:33.228Z,3.60
2019-02-18T22:17:01.393Z,3.60
2019-02-18T22:19:34.229Z,3.60
2019-02-18T22:22:07.106Z,3.50
2019-02-18T22:24:39.950Z,3.50
2019-02-18T22:27:14.820Z,3.50
2019-02-18T22:29:47.644Z,3.50
2019-02-18T22:32:20.494Z,3.40
2019-02-18T22:34:53.307Z,3.30
2019-02-18T22:37:26.107Z,3.20
2019-02-18T22:39:59.151Z,3.20
2019-02-18T22:42:31.996Z,3.20
2019-02-18T22:45:05.267Z,3.20
2019-02-18T22:47:38.123Z,3.10
2019-02-18T22:50:11.714Z,2.90
2019-02-18T22:52:44.531Z,2.80
2019-02-18T22:55:17.382Z,2.70
2019-02-18T22:57:50.305Z,2.70
2019-02-18T23:00:55.454Z,2.90
2019-02-18T23:03:28.802Z,3.00
2019-02-18T23:06:01.639Z,3.00
2019-02-18T23:08:34.520Z,3.00
2019-02-18T23:11:07.696Z,3.00
2019-02-18T23:13:40.622Z,2.80
2019-02-18T23:16:14.362Z,2.60
2019-02-18T23:18:47.194Z,2.50
2019-02-18T23:21:20.048Z,2.40
2019-02-18T23:23:52.857Z,2.30
2019-02-18T23:26:25.665Z,2.30
2019-02-18T23:28:58.584Z,2.40
2019-02-18T23:31:31.429Z,2.30
2019-02-18T23:34:04.329Z,2.30
2019-02-18T23:36:37.193Z,2.20
2019-02-18T23:39:10.032Z,2.20
2019-02-18T23:41:44.017Z,2.20
2019-02-18T23:44:16.887Z,2.20
2019-02-18T23:46:49.675Z,2.10
2019-02-18T23:49:22.537Z,2.10
2019-02-18T23:51:55.386Z,2.10
2019-02-18T23:54:28.216Z,2.10
2019-02-18T23:57:01.072Z,2.00
2019-02-18T23:59:34.067Z,2.00
